Terminal Aerodrome Forecast
Issued by NWS Jackson, MS

Home | Current Version | Previous Version | Text Only | Print | Product List | Glossary On
Versions: 1 2 3 4 5 6 7 8 9 10 11 12 13 14 15
000
FTUS44 KJAN 200500
TAFHBG
TAF
KHBG 200529Z 2006/2106 04004KT P6SM -RA OVC008
     FM200900 02004KT 5SM BR VCSH OVC003
     FM201400 03007KT 5SM BR BKN007 OVC020
     FM201700 02006KT P6SM BKN015 OVC025
     FM202100 02005KT P6SM SCT030 OVC050=

USA.gov is the U.S. government's official web portal to all federal, state and local government web resources and services.